createdAt,value
2022-10-01T00:02:03.466Z,10.50
2022-10-01T00:04:30.838Z,10.50
2022-10-01T00:07:00.367Z,10.50
2022-10-01T00:09:27.552Z,10.50
2022-10-01T00:11:54.698Z,10.50
2022-10-01T00:14:21.897Z,10.50
2022-10-01T00:16:49.120Z,10.50
2022-10-01T00:19:16.359Z,10.50
2022-10-01T00:21:43.503Z,10.60
2022-10-01T00:24:14.159Z,10.60
2022-10-01T00:26:42.760Z,10.60
2022-10-01T00:29:14.933Z,10.60
2022-10-01T00:31:42.478Z,10.50
2022-10-01T00:34:12.646Z,10.50
2022-10-01T00:36:39.878Z,10.50
2022-10-01T00:39:07.115Z,10.50
2022-10-01T00:41:35.422Z,10.50
2022-10-01T00:44:38.003Z,10.50
2022-10-01T00:47:23.863Z,10.50
2022-10-01T00:49:59.330Z,10.50
2022-10-01T00:52:31.293Z,10.50
2022-10-01T00:55:06.289Z,10.50
2022-10-01T00:57:34.378Z,10.50
2022-10-01T01:00:05.602Z,10.50
2022-10-01T01:02:33.191Z,10.60
2022-10-01T01:05:00.871Z,10.60
2022-10-01T01:07:31.388Z,10.60
2022-10-01T01:09:59.090Z,10.60
2022-10-01T01:12:45.520Z,10.60
2022-10-01T01:15:38.115Z,10.50
2022-10-01T01:18:15.248Z,10.50
2022-10-01T01:20:42.417Z,10.50
2022-10-01T01:23:16.201Z,10.50
2022-10-01T01:26:00.123Z,10.50
2022-10-01T01:28:39.125Z,10.50
2022-10-01T01:31:11.810Z,10.50
2022-10-01T01:33:41.992Z,10.50
2022-10-01T01:36:19.172Z,10.50
2022-10-01T01:38:54.836Z,10.50
2022-10-01T01:41:26.024Z,10.50
2022-10-01T01:43:58.442Z,10.40
2022-10-01T01:46:32.076Z,10.40
2022-10-01T01:49:02.300Z,10.40
2022-10-01T01:51:56.186Z,10.40
2022-10-01T01:54:23.392Z,10.30
2022-10-01T01:56:51.137Z,10.30
2022-10-01T01:59:19.648Z,10.30
2022-10-01T02:01:49.518Z,10.30
2022-10-01T02:04:26.158Z,10.30
2022-10-01T02:07:21.315Z,10.30
2022-10-01T02:10:00.408Z,10.30
2022-10-01T02:12:53.837Z,10.30
2022-10-01T02:16:09.155Z,10.30
2022-10-01T02:18:45.728Z,10.30
2022-10-01T02:21:33.158Z,10.30
2022-10-01T02:24:13.893Z,10.20
2022-10-01T02:26:43.525Z,10.20
2022-10-01T02:29:13.729Z,10.20
2022-10-01T02:31:41.930Z,10.10
2022-10-01T02:34:12.596Z,10.10
2022-10-01T02:36:42.573Z,10.00
2022-10-01T02:39:10.860Z,10.00
2022-10-01T02:41:38.106Z,10.00
2022-10-01T02:44:14.886Z,9.90
2022-10-01T02:47:07.794Z,9.90
2022-10-01T02:49:36.018Z,9.80
2022-10-01T02:52:09.952Z,9.80
2022-10-01T02:54:46.234Z,9.80
2022-10-01T02:57:27.699Z,9.80
2022-10-01T03:00:00.817Z,9.80
2022-10-01T03:02:31.750Z,9.80
2022-10-01T03:04:59.805Z,9.80
2022-10-01T03:07:30.158Z,9.80
2022-10-01T03:09:57.816Z,9.80
2022-10-01T03:12:25.229Z,9.80
2022-10-01T03:14:53.762Z,9.70
2022-10-01T03:17:20.978Z,9.70
2022-10-01T03:19:48.564Z,9.70
2022-10-01T03:22:22.731Z,9.70
2022-10-01T03:24:53.603Z,9.70
2022-10-01T03:27:21.834Z,9.60
2022-10-01T03:29:49.134Z,9.60
2022-10-01T03:32:17.600Z,9.60
2022-10-01T03:34:44.829Z,9.60
2022-10-01T03:37:11.969Z,9.60
2022-10-01T03:39:39.458Z,9.50
2022-10-01T03:42:06.997Z,9.50
2022-10-01T03:44:34.700Z,9.50
2022-10-01T03:47:01.792Z,9.40
2022-10-01T03:49:29.311Z,9.40
2022-10-01T03:51:56.902Z,9.40
2022-10-01T03:54:24.049Z,9.40
2022-10-01T03:56:52.403Z,9.30
2022-10-01T03:59:20.060Z,9.30
2022-10-01T04:01:47.266Z,9.30
2022-10-01T04:04:15.120Z,9.20
2022-10-01T04:06:42.412Z,9.20
2022-10-01T04:09:10.053Z,9.10
2022-10-01T04:11:37.888Z,9.10
2022-10-01T04:14:05.260Z,9.10
2022-10-01T04:16:34.942Z,9.00
2022-10-01T04:19:03.530Z,9.10
2022-10-01T04:21:30.847Z,9.00
2022-10-01T04:23:58.311Z,9.00
2022-10-01T04:26:25.552Z,9.00
2022-10-01T04:28:52.656Z,9.00
2022-10-01T04:31:25.460Z,9.00
2022-10-01T04:33:54.421Z,8.90
2022-10-01T04:36:22.165Z,8.90
2022-10-01T04:38:59.285Z,8.90
2022-10-01T04:41:26.783Z,8.90
2022-10-01T04:43:53.885Z,9.00
2022-10-01T04:46:21.108Z,9.00
2022-10-01T04:48:49.439Z,9.00
2022-10-01T04:51:17.772Z,9.00
2022-10-01T04:53:44.923Z,9.00
2022-10-01T04:56:12.051Z,9.00
2022-10-01T04:58:39.197Z,8.90
2022-10-01T05:01:06.404Z,8.90
2022-10-01T05:03:34.215Z,8.80
2022-10-01T05:06:01.608Z,8.80
2022-10-01T05:08:28.769Z,8.80
2022-10-01T05:10:58.680Z,8.80
2022-10-01T05:13:30.071Z,8.80
2022-10-01T05:15:58.289Z,8.80
2022-10-01T05:18:25.522Z,8.80
2022-10-01T05:20:52.636Z,8.90
2022-10-01T05:23:19.800Z,8.90
2022-10-01T05:25:47.237Z,8.90
2022-10-01T05:28:19.649Z,8.90
2022-10-01T05:30:49.279Z,8.80
2022-10-01T05:33:16.402Z,8.80
2022-10-01T05:35:44.596Z,8.80
2022-10-01T05:38:11.735Z,8.80
2022-10-01T05:40:38.940Z,8.80
2022-10-01T05:43:06.039Z,8.80
2022-10-01T05:45:33.275Z,8.80
2022-10-01T05:48:02.515Z,8.80
2022-10-01T05:50:31.806Z,8.90
2022-10-01T05:52:59.462Z,8.90
2022-10-01T05:55:31.912Z,8.90
2022-10-01T05:58:10.728Z,9.00
2022-10-01T06:00:39.921Z,9.00
2022-10-01T06:03:07.827Z,9.00
2022-10-01T06:05:36.574Z,9.00
2022-10-01T06:08:06.408Z,9.00
2022-10-01T06:10:33.702Z,9.10
2022-10-01T06:13:02.005Z,9.10
2022-10-01T06:15:31.831Z,9.10
2022-10-01T06:18:02.609Z,9.10
2022-10-01T06:20:29.855Z,9.10
2022-10-01T06:22:58.419Z,9.10
2022-10-01T06:25:30.811Z,9.10
2022-10-01T06:27:59.872Z,9.00
2022-10-01T06:30:29.291Z,9.10
2022-10-01T06:33:03.820Z,9.00
2022-10-01T06:35:35.271Z,9.00
2022-10-01T06:38:02.969Z,9.00
2022-10-01T06:40:30.689Z,9.00
2022-10-01T06:42:58.873Z,9.00
2022-10-01T06:45:30.557Z,9.00
2022-10-01T06:48:03.156Z,9.10
2022-10-01T06:50:31.747Z,9.10
2022-10-01T06:53:00.116Z,9.10
2022-10-01T06:55:32.902Z,9.10
2022-10-01T06:58:06.646Z,9.20
2022-10-01T07:00:36.001Z,9.20
2022-10-01T07:03:11.459Z,9.20
2022-10-01T07:05:39.688Z,9.30
2022-10-01T07:08:08.689Z,9.30
2022-10-01T07:10:37.557Z,9.30
2022-10-01T07:13:07.825Z,9.40
2022-10-01T07:15:35.315Z,9.40
2022-10-01T07:18:02.902Z,9.40
2022-10-01T07:20:33.281Z,9.50
2022-10-01T07:23:00.705Z,9.50
2022-10-01T07:25:28.630Z,9.50
2022-10-01T07:28:00.991Z,9.50
2022-10-01T07:30:28.308Z,9.50
2022-10-01T07:32:55.420Z,9.40
2022-10-01T07:35:23.302Z,9.40
2022-10-01T07:37:51.205Z,9.40
2022-10-01T07:40:18.952Z,9.40
2022-10-01T07:42:56.616Z,9.40
2022-10-01T07:45:24.562Z,9.50
2022-10-01T07:47:56.506Z,9.50
2022-10-01T07:50:25.483Z,9.60
2022-10-01T07:52:57.222Z,9.60
2022-10-01T07:55:27.150Z,9.60
2022-10-01T07:57:56.171Z,9.70
2022-10-01T08:00:25.092Z,9.80
2022-10-01T08:02:56.086Z,9.80
2022-10-01T08:05:26.118Z,9.90
2022-10-01T08:07:54.169Z,9.90
2022-10-01T08:10:23.459Z,9.90
2022-10-01T08:13:42.927Z,10.00
2022-10-01T08:16:39.269Z,10.00
2022-10-01T08:19:09.517Z,10.10
2022-10-01T08:21:37.241Z,10.20
2022-10-01T08:24:05.716Z,10.20
2022-10-01T08:26:33.372Z,10.30
2022-10-01T08:29:00.561Z,10.30
2022-10-01T08:31:28.007Z,10.30
2022-10-01T08:33:56.934Z,10.40
2022-10-01T08:36:24.169Z,10.50
2022-10-01T08:38:51.254Z,10.50
2022-10-01T08:41:40.142Z,10.50
2022-10-01T08:44:08.065Z,10.60
2022-10-01T08:46:37.763Z,10.60
2022-10-01T08:49:20.780Z,10.70
2022-10-01T08:52:13.389Z,10.80
2022-10-01T08:54:48.536Z,10.90
2022-10-01T08:57:20.230Z,10.90
2022-10-01T08:59:52.671Z,11.00
2022-10-01T09:02:24.309Z,11.10
2022-10-01T09:05:00.343Z,11.20
2022-10-01T09:07:28.541Z,11.30
2022-10-01T09:10:28.887Z,11.30
2022-10-01T09:13:23.420Z,11.40
2022-10-01T09:16:18.560Z,11.50
2022-10-01T09:18:57.856Z,11.60
2022-10-01T09:21:47.497Z,11.70
2022-10-01T09:24:38.485Z,11.70
2022-10-01T09:27:15.594Z,11.70
2022-10-01T09:29:54.140Z,11.80
2022-10-01T09:32:27.051Z,11.80
2022-10-01T09:34:55.472Z,11.80
2022-10-01T09:37:35.824Z,11.90
2022-10-01T09:40:20.401Z,11.90
2022-10-01T09:42:48.302Z,12.00
2022-10-01T09:45:18.714Z,12.00
2022-10-01T09:47:50.505Z,12.10
2022-10-01T09:50:40.527Z,12.20
2022-10-01T09:53:16.209Z,12.20
2022-10-01T09:55:52.456Z,12.30
2022-10-01T09:58:23.473Z,12.40
2022-10-01T10:00:52.443Z,12.40
2022-10-01T10:03:27.486Z,12.50
2022-10-01T10:05:55.068Z,12.60
2022-10-01T10:08:37.201Z,12.60
2022-10-01T10:11:08.664Z,12.70
2022-10-01T10:14:04.536Z,12.70
2022-10-01T10:16:37.174Z,12.60
2022-10-01T10:19:14.317Z,12.60
2022-10-01T10:21:52.204Z,12.50
2022-10-01T10:24:31.259Z,12.50
2022-10-01T10:27:01.122Z,12.50
2022-10-01T10:29:31.319Z,12.50
2022-10-01T10:32:03.097Z,12.50
2022-10-01T10:34:38.417Z,12.50
2022-10-01T10:37:14.754Z,12.50
2022-10-01T10:39:46.758Z,12.60
2022-10-01T10:42:15.936Z,12.60
2022-10-01T10:44:45.017Z,12.60
2022-10-01T10:47:15.018Z,12.70
2022-10-01T10:50:20.346Z,12.70
2022-10-01T10:52:47.680Z,12.70
2022-10-01T10:55:23.924Z,12.70
2022-10-01T10:57:55.594Z,12.70
2022-10-01T11:00:26.220Z,12.70
2022-10-01T11:03:00.570Z,12.70
2022-10-01T11:05:32.895Z,12.70
2022-10-01T11:08:03.026Z,12.80
2022-10-01T11:10:56.340Z,12.80
2022-10-01T11:14:00.394Z,12.90
2022-10-01T11:17:00.560Z,12.90
2022-10-01T11:19:44.931Z,13.00
2022-10-01T11:22:22.854Z,13.10
2022-10-01T11:25:27.419Z,13.20
2022-10-01T11:28:03.701Z,13.40
2022-10-01T11:31:00.084Z,13.50
2022-10-01T11:34:15.263Z,13.70
2022-10-01T11:37:06.019Z,13.90
2022-10-01T11:39:35.387Z,14.00
2022-10-01T11:42:12.785Z,14.10
2022-10-01T11:44:43.073Z,14.30
2022-10-01T11:47:31.754Z,14.40
2022-10-01T11:50:07.672Z,14.40
2022-10-01T11:52:44.146Z,14.50
2022-10-01T11:55:48.480Z,14.70
2022-10-01T11:58:37.701Z,14.70
2022-10-01T12:01:31.913Z,15.00
2022-10-01T12:04:06.959Z,14.90
2022-10-01T12:07:02.606Z,14.90
2022-10-01T12:10:25.798Z,14.90
2022-10-01T12:13:17.072Z,14.90
2022-10-01T12:16:23.044Z,14.90
2022-10-01T12:19:12.821Z,15.00
2022-10-01T12:22:16.183Z,15.00
2022-10-01T12:24:45.186Z,15.10
2022-10-01T12:27:24.529Z,15.10
2022-10-01T12:30:16.564Z,15.20
2022-10-01T12:32:46.758Z,15.20
2022-10-01T12:35:35.530Z,15.30
2022-10-01T12:38:41.096Z,15.20
2022-10-01T12:41:30.597Z,15.20
2022-10-01T12:44:24.772Z,15.10
2022-10-01T12:47:14.058Z,15.10
2022-10-01T12:49:50.529Z,15.20
2022-10-01T12:52:42.269Z,15.20
2022-10-01T12:55:16.276Z,15.30
2022-10-01T12:58:05.529Z,15.40
2022-10-01T13:00:43.085Z,15.50
2022-10-01T13:03:43.985Z,15.50
2022-10-01T13:06:33.793Z,15.50
2022-10-01T13:09:10.421Z,15.70
2022-10-01T13:12:15.882Z,15.70
2022-10-01T13:14:44.574Z,15.60
2022-10-01T13:17:33.887Z,15.40
2022-10-01T13:20:13.526Z,15.30
2022-10-01T13:23:18.752Z,15.40
2022-10-01T13:26:03.338Z,15.50
2022-10-01T13:28:39.455Z,15.50
2022-10-01T13:31:15.247Z,15.60
2022-10-01T13:33:53.245Z,15.70
2022-10-01T13:36:29.794Z,15.70
2022-10-01T13:38:57.659Z,15.80
2022-10-01T13:41:29.832Z,15.80
2022-10-01T13:44:26.519Z,15.80
2022-10-01T13:47:03.256Z,15.80
2022-10-01T13:49:31.851Z,15.90
2022-10-01T13:51:59.929Z,15.90
2022-10-01T13:54:47.623Z,15.80
2022-10-01T13:57:37.167Z,15.80
2022-10-01T14:00:13.618Z,15.80
2022-10-01T14:02:47.347Z,15.80
2022-10-01T14:05:17.673Z,15.80
2022-10-01T14:07:47.989Z,15.90
2022-10-01T14:10:16.691Z,16.00
2022-10-01T14:13:05.121Z,16.00
2022-10-01T14:16:00.340Z,16.10
2022-10-01T14:18:33.708Z,16.10
2022-10-01T14:21:28.488Z,16.10
2022-10-01T14:24:18.431Z,16.20
2022-10-01T14:26:59.465Z,16.20
2022-10-01T14:29:47.416Z,16.20
2022-10-01T14:32:31.371Z,16.30
2022-10-01T14:35:23.623Z,16.30
2022-10-01T14:37:57.041Z,16.30
2022-10-01T14:40:25.137Z,16.30
2022-10-01T14:43:00.503Z,16.40
2022-10-01T14:45:28.848Z,16.40
2022-10-01T14:48:04.647Z,16.50
2022-10-01T14:50:37.735Z,16.50
2022-10-01T14:53:17.276Z,16.60
2022-10-01T14:55:45.452Z,16.60
2022-10-01T14:58:26.447Z,16.60
2022-10-01T15:00:55.726Z,16.60
2022-10-01T15:03:23.182Z,16.50
2022-10-01T15:05:51.362Z,16.50
2022-10-01T15:08:23.185Z,16.40
2022-10-01T15:11:04.233Z,16.40
2022-10-01T15:13:36.283Z,16.40
2022-10-01T15:16:03.925Z,16.50
2022-10-01T15:18:32.137Z,16.50
2022-10-01T15:21:06.567Z,16.60
2022-10-01T15:23:38.876Z,16.60
2022-10-01T15:26:27.467Z,16.60
2022-10-01T15:29:13.651Z,16.60
2022-10-01T15:31:42.255Z,16.60
2022-10-01T15:34:16.108Z,16.70
2022-10-01T15:36:44.164Z,16.70
2022-10-01T15:39:41.397Z,16.70
2022-10-01T15:42:21.659Z,16.60
2022-10-01T15:44:50.052Z,16.70
2022-10-01T15:47:20.203Z,16.70
2022-10-01T15:50:09.193Z,16.80
2022-10-01T15:52:54.285Z,16.90
2022-10-01T15:55:54.431Z,16.90
2022-10-01T15:58:27.962Z,16.90
2022-10-01T16:01:03.603Z,16.90
2022-10-01T16:03:47.597Z,16.90
2022-10-01T16:06:29.626Z,16.80
2022-10-01T16:09:16.580Z,16.80
2022-10-01T16:16:28.580Z,16.50
2022-10-01T16:19:18.630Z,16.40
2022-10-01T16:22:18.798Z,16.30
2022-10-01T16:24:48.841Z,16.20
2022-10-01T16:27:19.177Z,16.10
2022-10-01T16:30:05.716Z,16.00
2022-10-01T16:32:33.954Z,15.90
2022-10-01T16:35:19.250Z,15.90
2022-10-01T16:37:49.792Z,15.80
2022-10-01T16:40:22.682Z,15.70
2022-10-01T16:42:50.759Z,15.70
2022-10-01T16:45:26.933Z,15.60
2022-10-01T16:47:58.402Z,15.60
2022-10-01T16:50:26.224Z,15.50
2022-10-01T16:52:55.624Z,15.50
2022-10-01T16:55:26.260Z,15.40
2022-10-01T16:57:57.149Z,15.40
2022-10-01T17:00:26.520Z,15.30
2022-10-01T17:02:55.177Z,15.30
2022-10-01T17:05:28.368Z,15.20
2022-10-01T17:08:01.168Z,15.10
2022-10-01T17:10:31.186Z,15.10
2022-10-01T17:12:59.684Z,15.10
2022-10-01T17:15:28.136Z,15.00
2022-10-01T17:17:57.025Z,15.00
2022-10-01T17:20:28.584Z,14.90
2022-10-01T17:22:56.803Z,14.80
2022-10-01T17:25:32.097Z,14.70
2022-10-01T17:28:02.493Z,14.70
2022-10-01T17:30:30.865Z,14.70
2022-10-01T17:33:02.830Z,14.70
2022-10-01T17:35:30.231Z,14.70
2022-10-01T17:37:58.606Z,14.60
2022-10-01T17:40:26.212Z,14.60
2022-10-01T17:42:53.458Z,14.60
2022-10-01T17:45:20.896Z,14.50
2022-10-01T17:47:50.487Z,14.40
2022-10-01T17:50:17.956Z,14.40
2022-10-01T17:52:47.691Z,14.30
2022-10-01T17:55:15.263Z,14.20
2022-10-01T17:57:42.985Z,14.10
2022-10-01T18:00:10.756Z,14.00
2022-10-01T18:02:42.838Z,14.00
2022-10-01T18:05:14.604Z,14.00
2022-10-01T18:07:42.581Z,13.90
2022-10-01T18:10:12.914Z,13.90
2022-10-01T18:12:40.556Z,13.90
2022-10-01T18:15:08.328Z,13.80
2022-10-01T18:17:36.684Z,13.70
2022-10-01T18:20:06.004Z,13.70
2022-10-01T18:22:34.527Z,13.60
2022-10-01T18:25:03.535Z,13.60
2022-10-01T18:27:31.001Z,13.60
2022-10-01T18:29:58.158Z,13.50
2022-10-01T18:32:27.848Z,13.50
2022-10-01T18:34:59.191Z,13.40
2022-10-01T18:37:52.495Z,13.40
2022-10-01T18:40:21.283Z,13.40
2022-10-01T18:43:09.121Z,13.30
2022-10-01T18:46:03.711Z,13.30
2022-10-01T18:48:37.304Z,13.30
2022-10-01T18:51:31.150Z,13.20
2022-10-01T18:54:40.099Z,13.20
2022-10-01T18:57:50.981Z,13.20
2022-10-01T19:00:23.428Z,13.20
2022-10-01T19:02:59.911Z,13.10
2022-10-01T19:05:49.025Z,13.10
2022-10-01T19:08:23.956Z,13.10
2022-10-01T19:11:08.112Z,13.00
2022-10-01T19:14:05.660Z,13.00
2022-10-01T19:17:17.405Z,12.90
2022-10-01T19:20:11.299Z,12.90
2022-10-01T19:22:54.340Z,12.90
2022-10-01T19:25:33.410Z,12.90
2022-10-01T19:28:15.679Z,12.90
2022-10-01T19:31:24.167Z,12.80
2022-10-01T19:34:00.554Z,12.80
2022-10-01T19:36:34.780Z,12.80
2022-10-01T19:39:09.545Z,12.70
2022-10-01T19:41:44.602Z,12.70
2022-10-01T19:44:25.813Z,12.70
2022-10-01T19:47:01.330Z,12.60
2022-10-01T19:49:39.389Z,12.60
2022-10-01T19:52:14.566Z,12.60
2022-10-01T19:54:52.639Z,12.60
2022-10-01T19:57:28.581Z,12.50
2022-10-01T20:00:12.086Z,12.50
2022-10-01T20:03:01.363Z,12.50
2022-10-01T20:05:42.295Z,12.50
2022-10-01T20:08:33.894Z,12.50
2022-10-01T20:11:29.749Z,12.40
2022-10-01T20:13:59.940Z,12.40
2022-10-01T20:16:30.561Z,12.40
2022-10-01T20:19:26.769Z,12.30
2022-10-01T20:22:23.981Z,12.30
2022-10-01T20:25:00.065Z,12.30
2022-10-01T20:28:05.438Z,12.20
2022-10-01T20:30:41.029Z,12.20
2022-10-01T20:33:26.737Z,12.20
2022-10-01T20:36:44.841Z,12.20
2022-10-01T20:39:34.848Z,12.10
2022-10-01T20:42:03.863Z,12.10
2022-10-01T20:44:36.638Z,12.10
2022-10-01T20:47:11.476Z,12.00
2022-10-01T20:49:43.888Z,12.00
2022-10-01T20:52:35.659Z,12.00
2022-10-01T20:55:12.447Z,11.90
2022-10-01T20:57:50.761Z,11.90
2022-10-01T21:00:23.456Z,11.90
2022-10-01T21:03:11.921Z,11.90
2022-10-01T21:06:03.870Z,11.90
2022-10-01T21:08:49.007Z,11.90
2022-10-01T21:11:21.968Z,11.80
2022-10-01T21:14:18.477Z,11.80
2022-10-01T21:17:07.154Z,11.80
2022-10-01T21:20:01.857Z,11.80
2022-10-01T21:22:48.160Z,11.70
2022-10-01T21:25:34.174Z,11.70
2022-10-01T21:28:32.473Z,11.70
2022-10-01T21:31:02.832Z,11.70
2022-10-01T21:33:34.814Z,11.60
2022-10-01T21:36:19.685Z,11.60
2022-10-01T21:38:51.968Z,11.60
2022-10-01T21:41:28.744Z,11.60
2022-10-01T21:44:19.185Z,11.60
2022-10-01T21:47:21.288Z,11.60
2022-10-01T21:50:11.959Z,11.60
2022-10-01T21:53:04.202Z,11.60
2022-10-01T21:55:34.083Z,11.60
2022-10-01T21:58:22.393Z,11.60
2022-10-01T22:01:31.243Z,11.60
2022-10-01T22:04:22.035Z,11.50
2022-10-01T22:06:59.716Z,11.50
2022-10-01T22:10:00.502Z,11.50
2022-10-01T22:12:32.745Z,11.50
2022-10-01T22:15:00.804Z,11.40
2022-10-01T22:17:34.072Z,11.40
2022-10-01T22:20:04.722Z,11.40
2022-10-01T22:22:38.703Z,11.40
2022-10-01T22:25:07.527Z,11.40
2022-10-01T22:28:10.492Z,11.40
2022-10-01T22:30:40.648Z,11.40
2022-10-01T22:33:18.351Z,11.30
2022-10-01T22:36:07.392Z,11.30
2022-10-01T22:38:40.372Z,11.20
2022-10-01T22:41:20.677Z,11.20
2022-10-01T22:43:47.979Z,11.20
2022-10-01T22:46:48.533Z,11.20
2022-10-01T22:49:19.226Z,11.20
2022-10-01T22:52:17.062Z,11.20
2022-10-01T22:55:02.829Z,11.20
2022-10-01T22:58:02.098Z,11.20
2022-10-01T23:00:31.966Z,11.20
2022-10-01T23:03:26.706Z,11.20
2022-10-01T23:06:15.748Z,11.20
2022-10-01T23:08:56.838Z,11.20
2022-10-01T23:11:32.496Z,11.20
2022-10-01T23:14:17.230Z,11.10
2022-10-01T23:17:01.145Z,11.10
2022-10-01T23:19:46.233Z,11.10
2022-10-01T23:22:30.626Z,11.10
2022-10-01T23:25:42.289Z,11.00
2022-10-01T23:28:36.832Z,11.00
2022-10-01T23:31:21.123Z,11.00
2022-10-01T23:34:20.814Z,11.00
2022-10-01T23:37:10.843Z,11.00
2022-10-01T23:42:47.822Z,11.00
2022-10-01T23:45:35.896Z,10.90
2022-10-01T23:48:18.631Z,10.90
2022-10-01T23:51:00.392Z,10.90
2022-10-01T23:53:45.048Z,10.90
2022-10-01T23:56:48.863Z,10.80
2022-10-01T23:59:40.565Z,10.80
